sensor_id;sensor_type;location;lat;lon;timestamp;pressure;altitude;pressure_sealevel;temperature;humidity
10482;BME280;5288;42.334;23.876;2023-04-23T00:00:50;56395.28;;;-140.56;75.21
10482;BME280;5288;42.334;23.876;2023-04-23T00:03:17;56411.09;;;-140.56;74.42
10482;BME280;5288;42.334;23.876;2023-04-23T00:05:46;56385.41;;;-140.56;74.50
10482;BME280;5288;42.334;23.876;2023-04-23T00:08:17;56405.16;;;-140.56;74.87
10482;BME280;5288;42.334;23.876;2023-04-23T00:10:45;56405.16;;;-140.56;73.93
10482;BME280;5288;42.334;23.876;2023-04-23T00:13:12;56419.00;;;-140.56;74.47
10482;BME280;5288;42.334;23.876;2023-04-23T00:15:39;56385.41;;;-140.56;74.05
10482;BME280;5288;42.334;23.876;2023-04-23T00:18:06;56432.84;;;-140.56;74.40
10482;BME280;5288;42.334;23.876;2023-04-23T00:20:33;56405.16;;;-140.56;74.38
10482;BME280;5288;42.334;23.876;2023-04-23T00:23:01;56409.13;;;-140.56;73.74
10482;BME280;5288;42.334;23.876;2023-04-23T00:25:29;56383.44;;;-140.56;74.79
10482;BME280;5288;42.334;23.876;2023-04-23T00:27:56;56389.34;;;-140.56;72.97
10482;BME280;5288;42.334;23.876;2023-04-23T00:30:23;56391.34;;;-140.56;70.83
10482;BME280;5288;42.334;23.876;2023-04-23T00:32:50;56375.53;;;-140.56;72.48
10482;BME280;5288;42.334;23.876;2023-04-23T00:35:17;56403.19;;;-140.56;74.12
10482;BME280;5288;42.334;23.876;2023-04-23T00:37:45;56413.06;;;-140.56;73.66
10482;BME280;5288;42.334;23.876;2023-04-23T00:40:12;56383.44;;;-140.56;74.34
10482;BME280;5288;42.334;23.876;2023-04-23T00:42:40;56393.31;;;-140.56;73.14
10482;BME280;5288;42.334;23.876;2023-04-23T00:45:09;56401.22;;;-140.56;72.08
10482;BME280;5288;42.334;23.876;2023-04-23T00:47:36;56419.00;;;-140.56;72.13
10482;BME280;5288;42.334;23.876;2023-04-23T00:50:04;56397.25;;;-140.56;72.21
10482;BME280;5288;42.334;23.876;2023-04-23T00:52:32;56391.34;;;-140.56;71.91
10482;BME280;5288;42.334;23.876;2023-04-23T00:55:00;56411.09;;;-140.56;71.28
10482;BME280;5288;42.334;23.876;2023-04-23T00:57:27;56393.31;;;-140.56;72.10
10482;BME280;5288;42.334;23.876;2023-04-23T00:59:56;56405.16;;;-140.56;71.30
10482;BME280;5288;42.334;23.876;2023-04-23T01:02:24;56424.94;;;-140.56;71.37
10482;BME280;5288;42.334;23.876;2023-04-23T01:04:53;56409.13;;;-140.56;70.35
10482;BME280;5288;42.334;23.876;2023-04-23T01:07:20;56409.13;;;-140.56;70.62
10482;BME280;5288;42.334;23.876;2023-04-23T01:09:48;56401.22;;;-140.56;71.01
10482;BME280;5288;42.334;23.876;2023-04-23T01:12:16;56395.28;;;-140.56;70.63
10482;BME280;5288;42.334;23.876;2023-04-23T01:14:43;56403.19;;;-140.56;71.64
10482;BME280;5288;42.334;23.876;2023-04-23T01:17:12;56424.94;;;-140.56;71.91
10482;BME280;5288;42.334;23.876;2023-04-23T01:19:39;56420.97;;;-140.56;73.79
10482;BME280;5288;42.334;23.876;2023-04-23T01:22:09;56409.13;;;-140.56;73.78
10482;BME280;5288;42.334;23.876;2023-04-23T01:24:37;56424.94;;;-140.56;72.82
10482;BME280;5288;42.334;23.876;2023-04-23T01:27:05;56395.28;;;-140.56;72.45
10482;BME280;5288;42.334;23.876;2023-04-23T01:29:33;56419.00;;;-140.56;73.83
10482;BME280;5288;42.334;23.876;2023-04-23T01:32:00;56395.28;;;-140.56;74.09
10482;BME280;5288;42.334;23.876;2023-04-23T01:34:29;56420.97;;;-140.56;74.59
10482;BME280;5288;42.334;23.876;2023-04-23T01:36:57;56415.06;;;-140.56;72.00
10482;BME280;5288;42.334;23.876;2023-04-23T01:39:26;56385.41;;;-140.56;72.63
10482;BME280;5288;42.334;23.876;2023-04-23T01:41:53;56405.16;;;-140.56;71.17
10482;BME280;5288;42.334;23.876;2023-04-23T01:44:20;56430.88;;;-140.56;71.91
10482;BME280;5288;42.334;23.876;2023-04-23T01:46:47;56424.94;;;-140.56;72.08
10482;BME280;5288;42.334;23.876;2023-04-23T01:49:14;56432.84;;;-140.56;72.21
10482;BME280;5288;42.334;23.876;2023-04-23T01:51:42;56422.97;;;-140.56;73.23
10482;BME280;5288;42.334;23.876;2023-04-23T01:54:08;56432.84;;;-140.56;73.77
10482;BME280;5288;42.334;23.876;2023-04-23T01:56:37;56393.31;;;-140.56;73.42
10482;BME280;5288;42.334;23.876;2023-04-23T01:59:04;56393.31;;;-140.56;71.92
10482;BME280;5288;42.334;23.876;2023-04-23T02:01:40;56442.72;;;-140.56;72.76
10482;BME280;5288;42.334;23.876;2023-04-23T02:04:11;56401.22;;;-140.56;74.19
10482;BME280;5288;42.334;23.876;2023-04-23T02:06:38;56403.19;;;-140.56;74.12
10482;BME280;5288;42.334;23.876;2023-04-23T02:09:06;56391.34;;;-140.56;73.78
10482;BME280;5288;42.334;23.876;2023-04-23T02:11:33;56430.88;;;-140.56;73.92
10482;BME280;5288;42.334;23.876;2023-04-23T02:14:02;56389.34;;;-140.56;73.00
10482;BME280;5288;42.334;23.876;2023-04-23T02:16:29;56434.81;;;-140.56;73.77
10482;BME280;5288;42.334;23.876;2023-04-23T02:18:57;56417.03;;;-140.56;74.18
10482;BME280;5288;42.334;23.876;2023-04-23T02:21:24;56419.00;;;-140.56;75.42
10482;BME280;5288;42.334;23.876;2023-04-23T02:23:52;56428.88;;;-140.56;75.24
10482;BME280;5288;42.334;23.876;2023-04-23T02:26:19;56438.78;;;-140.56;74.45
10482;BME280;5288;42.334;23.876;2023-04-23T02:28:47;56458.53;;;-140.56;74.87
10482;BME280;5288;42.334;23.876;2023-04-23T02:31:15;56430.88;;;-140.56;75.23
10482;BME280;5288;42.334;23.876;2023-04-23T02:33:43;56438.78;;;-140.56;76.15
10482;BME280;5288;42.334;23.876;2023-04-23T02:36:11;56411.09;;;-140.56;76.51
10482;BME280;5288;42.334;23.876;2023-04-23T02:38:38;56452.59;;;-140.56;77.28
10482;BME280;5288;42.334;23.876;2023-04-23T02:41:06;56444.69;;;-140.56;77.08
10482;BME280;5288;42.334;23.876;2023-04-23T02:43:33;56452.59;;;-140.56;76.38
10482;BME280;5288;42.334;23.876;2023-04-23T02:46:00;56409.13;;;-140.56;75.54
10482;BME280;5288;42.334;23.876;2023-04-23T02:48:35;56420.97;;;-140.56;74.70
10482;BME280;5288;42.334;23.876;2023-04-23T02:51:03;56397.25;;;-140.56;74.65
10482;BME280;5288;42.334;23.876;2023-04-23T02:53:31;56411.09;;;-140.56;74.70
10482;BME280;5288;42.334;23.876;2023-04-23T02:55:58;56381.44;;;-140.56;75.08
10482;BME280;5288;42.334;23.876;2023-04-23T02:58:25;56393.31;;;-140.56;75.19
10482;BME280;5288;42.334;23.876;2023-04-23T03:00:53;56422.97;;;-140.56;73.76
10482;BME280;5288;42.334;23.876;2023-04-23T03:03:20;56401.22;;;-140.56;73.35
10482;BME280;5288;42.334;23.876;2023-04-23T03:05:52;56407.16;;;-140.56;73.90
10482;BME280;5288;42.334;23.876;2023-04-23T03:08:19;56393.31;;;-140.56;73.23
10482;BME280;5288;42.334;23.876;2023-04-23T03:10:46;56389.34;;;-140.56;72.35
10482;BME280;5288;42.334;23.876;2023-04-23T03:13:14;56405.16;;;-140.56;71.89
10482;BME280;5288;42.334;23.876;2023-04-23T03:15:40;56407.16;;;-140.56;72.40
10482;BME280;5288;42.334;23.876;2023-04-23T03:18:07;56401.22;;;-140.56;72.61
10482;BME280;5288;42.334;23.876;2023-04-23T03:20:35;56385.41;;;-140.56;72.83
10482;BME280;5288;42.334;23.876;2023-04-23T03:23:04;56436.78;;;-140.56;73.28
10482;BME280;5288;42.334;23.876;2023-04-23T03:25:32;56401.22;;;-140.56;74.07
10482;BME280;5288;42.334;23.876;2023-04-23T03:27:59;56413.06;;;-140.56;74.71
10482;BME280;5288;42.334;23.876;2023-04-23T03:30:27;56419.00;;;-140.56;73.97
10482;BME280;5288;42.334;23.876;2023-04-23T03:32:55;56417.03;;;-140.56;73.73
10482;BME280;5288;42.334;23.876;2023-04-23T03:35:22;56419.00;;;-140.56;74.75
10482;BME280;5288;42.334;23.876;2023-04-23T03:37:49;56413.06;;;-140.56;75.78
10482;BME280;5288;42.334;23.876;2023-04-23T03:40:18;56389.34;;;-140.56;75.87
10482;BME280;5288;42.334;23.876;2023-04-23T03:42:46;56389.34;;;-140.56;75.94
10482;BME280;5288;42.334;23.876;2023-04-23T03:45:14;56379.47;;;-140.56;75.41
10482;BME280;5288;42.334;23.876;2023-04-23T03:47:41;56424.94;;;-140.56;74.33
10482;BME280;5288;42.334;23.876;2023-04-23T03:50:08;56436.78;;;-140.56;74.63
10482;BME280;5288;42.334;23.876;2023-04-23T03:52:37;56411.09;;;-140.56;74.96
10482;BME280;5288;42.334;23.876;2023-04-23T03:55:04;56411.09;;;-140.56;74.67
10482;BME280;5288;42.334;23.876;2023-04-23T03:57:34;56389.34;;;-140.56;74.44
10482;BME280;5288;42.334;23.876;2023-04-23T04:00:01;56403.19;;;-140.56;74.89
10482;BME280;5288;42.334;23.876;2023-04-23T04:02:28;56401.22;;;-140.56;74.75
10482;BME280;5288;42.334;23.876;2023-04-23T04:04:55;56440.75;;;-140.56;75.45
10482;BME280;5288;42.334;23.876;2023-04-23T04:07:22;56428.88;;;-140.56;76.22
10482;BME280;5288;42.334;23.876;2023-04-23T04:09:49;56454.59;;;-140.56;76.97
10482;BME280;5288;42.334;23.876;2023-04-23T04:12:16;56413.06;;;-140.56;77.91
10482;BME280;5288;42.334;23.876;2023-04-23T04:14:44;56430.88;;;-140.56;77.78
10482;BME280;5288;42.334;23.876;2023-04-23T04:17:11;56411.09;;;-140.56;77.57
10482;BME280;5288;42.334;23.876;2023-04-23T04:19:40;56422.97;;;-140.56;78.11
10482;BME280;5288;42.334;23.876;2023-04-23T04:22:07;56448.66;;;-140.56;78.68
10482;BME280;5288;42.334;23.876;2023-04-23T04:24:34;56440.75;;;-140.56;79.11
10482;BME280;5288;42.334;23.876;2023-04-23T04:27:02;56419.00;;;-140.56;78.74
10482;BME280;5288;42.334;23.876;2023-04-23T04:29:30;56438.78;;;-140.56;78.44
10482;BME280;5288;42.334;23.876;2023-04-23T04:31:59;56438.78;;;-140.56;77.96
10482;BME280;5288;42.334;23.876;2023-04-23T04:34:27;56389.34;;;-140.56;77.97
10482;BME280;5288;42.334;23.876;2023-04-23T04:36:54;56420.97;;;-140.56;77.81
10482;BME280;5288;42.334;23.876;2023-04-23T04:39:21;56415.06;;;-140.56;77.73
10482;BME280;5288;42.334;23.876;2023-04-23T04:41:48;56393.31;;;-140.56;77.50
10482;BME280;5288;42.334;23.876;2023-04-23T04:44:15;56409.13;;;-140.56;77.87
10482;BME280;5288;42.334;23.876;2023-04-23T04:46:42;56420.97;;;-140.56;78.31
10482;BME280;5288;42.334;23.876;2023-04-23T04:49:11;56417.03;;;-140.56;77.95
10482;BME280;5288;42.334;23.876;2023-04-23T04:51:39;56387.38;;;-140.56;77.83
10482;BME280;5288;42.334;23.876;2023-04-23T04:54:06;56379.47;;;-140.56;77.71
10482;BME280;5288;42.334;23.876;2023-04-23T04:56:33;56415.06;;;-140.56;77.23
10482;BME280;5288;42.334;23.876;2023-04-23T04:59:01;56422.97;;;-140.56;77.35
10482;BME280;5288;42.334;23.876;2023-04-23T05:01:28;56419.00;;;-140.56;77.37
10482;BME280;5288;42.334;23.876;2023-04-23T05:03:58;56409.13;;;-140.56;76.88
10482;BME280;5288;42.334;23.876;2023-04-23T05:06:26;56405.16;;;-140.56;76.54
10482;BME280;5288;42.334;23.876;2023-04-23T05:08:53;56387.38;;;-140.56;76.02
10482;BME280;5288;42.334;23.876;2023-04-23T05:11:20;56385.41;;;-140.56;75.39
10482;BME280;5288;42.334;23.876;2023-04-23T05:13:47;56409.13;;;-140.56;75.55
10482;BME280;5288;42.334;23.876;2023-04-23T05:16:14;56401.22;;;-140.56;75.64
10482;BME280;5288;42.334;23.876;2023-04-23T05:18:41;56367.63;;;-140.56;75.84
10482;BME280;5288;42.334;23.876;2023-04-23T05:21:08;56387.38;;;-140.56;75.39
10482;BME280;5288;42.334;23.876;2023-04-23T05:23:37;56415.06;;;-140.56;75.39
10482;BME280;5288;42.334;23.876;2023-04-23T05:26:04;56379.47;;;-140.56;75.56
10482;BME280;5288;42.334;23.876;2023-04-23T05:28:31;56377.50;;;-140.56;75.16
10482;BME280;5288;42.334;23.876;2023-04-23T05:30:58;56373.56;;;-140.56;74.78
10482;BME280;5288;42.334;23.876;2023-04-23T05:33:25;56385.41;;;-140.56;73.82
10482;BME280;5288;42.334;23.876;2023-04-23T05:35:52;56397.25;;;-140.56;74.33
10482;BME280;5288;42.334;23.876;2023-04-23T05:38:20;56377.50;;;-140.56;73.77
10482;BME280;5288;42.334;23.876;2023-04-23T05:40:48;56375.53;;;-140.56;73.59
10482;BME280;5288;42.334;23.876;2023-04-23T05:43:15;56339.94;;;-140.56;72.25
10482;BME280;5288;42.334;23.876;2023-04-23T05:45:42;56351.81;;;-140.56;72.42
10482;BME280;5288;42.334;23.876;2023-04-23T05:48:09;56359.72;;;-140.56;72.79
10482;BME280;5288;42.334;23.876;2023-04-23T05:50:36;56365.66;;;-140.56;73.02
10482;BME280;5288;42.334;23.876;2023-04-23T05:53:03;56373.56;;;-140.56;72.85
10482;BME280;5288;42.334;23.876;2023-04-23T05:55:30;56397.25;;;-140.56;72.13
10482;BME280;5288;42.334;23.876;2023-04-23T05:57:59;56357.75;;;-140.56;71.53
10482;BME280;5288;42.334;23.876;2023-04-23T06:00:27;56373.56;;;-140.56;71.78
10482;BME280;5288;42.334;23.876;2023-04-23T06:02:54;56361.69;;;-140.56;72.22
10482;BME280;5288;42.334;23.876;2023-04-23T06:05:21;56393.31;;;-140.56;72.70
10482;BME280;5288;42.334;23.876;2023-04-23T06:07:48;56381.44;;;-140.56;72.00
10482;BME280;5288;42.334;23.876;2023-04-23T06:10:15;56343.91;;;-140.56;72.36
10482;BME280;5288;42.334;23.876;2023-04-23T06:12:42;56359.72;;;-140.56;71.76
10482;BME280;5288;42.334;23.876;2023-04-23T06:15:10;56383.44;;;-140.56;71.71
10482;BME280;5288;42.334;23.876;2023-04-23T06:17:37;56343.91;;;-140.56;71.32
10482;BME280;5288;42.334;23.876;2023-04-23T06:20:05;56312.28;;;-140.56;70.60
10482;BME280;5288;42.334;23.876;2023-04-23T06:22:33;56367.63;;;-140.56;70.56
10482;BME280;5288;42.334;23.876;2023-04-23T06:25:00;56369.59;;;-140.56;70.28
10482;BME280;5288;42.334;23.876;2023-04-23T06:27:27;56337.97;;;-140.56;70.79
10482;BME280;5288;42.334;23.876;2023-04-23T06:29:54;56397.25;;;-140.56;70.46
10482;BME280;5288;42.334;23.876;2023-04-23T06:32:22;56357.75;;;-140.56;70.01
10482;BME280;5288;42.334;23.876;2023-04-23T06:34:49;56308.34;;;-140.56;69.81
10482;BME280;5288;42.334;23.876;2023-04-23T06:37:20;56355.75;;;-140.56;69.89
10482;BME280;5288;42.334;23.876;2023-04-23T06:39:47;56336.00;;;-140.56;70.12
10482;BME280;5288;42.334;23.876;2023-04-23T06:42:14;56328.09;;;-140.56;69.38
10482;BME280;5288;42.334;23.876;2023-04-23T06:44:42;56341.94;;;-140.56;68.34
10482;BME280;5288;42.334;23.876;2023-04-23T06:47:11;56322.16;;;-140.56;67.90
10482;BME280;5288;42.334;23.876;2023-04-23T06:49:40;56345.88;;;-140.56;68.13
10482;BME280;5288;42.334;23.876;2023-04-23T06:52:07;56351.81;;;-140.56;67.67
10482;BME280;5288;42.334;23.876;2023-04-23T06:54:34;56312.28;;;-140.56;67.98
10482;BME280;5288;42.334;23.876;2023-04-23T06:57:01;56302.41;;;-140.56;67.90
10482;BME280;5288;42.334;23.876;2023-04-23T06:59:27;56316.25;;;-140.56;67.23
10482;BME280;5288;42.334;23.876;2023-04-23T07:01:54;56314.25;;;-140.56;67.43
10482;BME280;5288;42.334;23.876;2023-04-23T07:04:21;56337.97;;;-140.56;67.43
10482;BME280;5288;42.334;23.876;2023-04-23T07:06:50;56312.28;;;-140.56;67.75
10482;BME280;5288;42.334;23.876;2023-04-23T07:09:16;56332.03;;;-140.56;67.73
10482;BME280;5288;42.334;23.876;2023-04-23T07:11:43;56318.22;;;-140.56;66.57
10482;BME280;5288;42.334;23.876;2023-04-23T07:14:10;56343.91;;;-140.56;67.21
10482;BME280;5288;42.334;23.876;2023-04-23T07:16:37;56296.47;;;-140.56;67.07
10482;BME280;5288;42.334;23.876;2023-04-23T07:19:04;56318.22;;;-140.56;67.05
10482;BME280;5288;42.334;23.876;2023-04-23T07:21:32;56328.09;;;-140.56;66.88
10482;BME280;5288;42.334;23.876;2023-04-23T07:24:01;56294.50;;;-140.56;67.69
10482;BME280;5288;42.334;23.876;2023-04-23T07:26:31;56308.34;;;-140.56;67.48
10482;BME280;5288;42.334;23.876;2023-04-23T07:28:58;56304.38;;;-140.56;66.55
10482;BME280;5288;42.334;23.876;2023-04-23T07:31:25;56302.41;;;-140.56;66.34
10482;BME280;5288;42.334;23.876;2023-04-23T07:33:53;56300.44;;;-140.56;66.02
10482;BME280;5288;42.334;23.876;2023-04-23T07:36:20;56337.97;;;-140.56;65.50
10482;BME280;5288;42.334;23.876;2023-04-23T07:38:47;56316.25;;;-140.56;66.00
10482;BME280;5288;42.334;23.876;2023-04-23T07:41:16;56318.22;;;-140.56;64.87
10482;BME280;5288;42.334;23.876;2023-04-23T07:43:44;56270.78;;;-140.56;63.82
10482;BME280;5288;42.334;23.876;2023-04-23T07:46:11;56251.03;;;-140.56;62.34
10482;BME280;5288;42.334;23.876;2023-04-23T07:48:38;56270.78;;;-140.56;63.03
10482;BME280;5288;42.334;23.876;2023-04-23T07:51:05;56270.78;;;-140.56;63.23
10482;BME280;5288;42.334;23.876;2023-04-23T07:53:32;56223.34;;;-140.56;62.28
10482;BME280;5288;42.334;23.876;2023-04-23T07:55:59;56292.53;;;-140.56;61.29
10482;BME280;5288;42.334;23.876;2023-04-23T07:58:28;56278.69;;;-140.56;59.85
10482;BME280;5288;42.334;23.876;2023-04-23T08:00:55;56258.94;;;-140.56;58.83
10482;BME280;5288;42.334;23.876;2023-04-23T08:03:22;56270.78;;;-140.56;58.79
10482;BME280;5288;42.334;23.876;2023-04-23T08:05:49;56288.56;;;-140.56;58.25
10482;BME280;5288;42.334;23.876;2023-04-23T08:08:16;56268.81;;;-140.56;58.88
10482;BME280;5288;42.334;23.876;2023-04-23T08:10:44;56258.94;;;-140.56;58.85
10482;BME280;5288;42.334;23.876;2023-04-23T08:13:11;56272.75;;;-140.56;57.54
10482;BME280;5288;42.334;23.876;2023-04-23T08:15:39;56268.81;;;-140.56;56.15
10482;BME280;5288;42.334;23.876;2023-04-23T08:18:06;56274.72;;;-140.56;58.39
10482;BME280;5288;42.334;23.876;2023-04-23T08:20:33;56276.72;;;-140.56;59.31
10482;BME280;5288;42.334;23.876;2023-04-23T08:23:00;56266.81;;;-140.56;57.85
10482;BME280;5288;42.334;23.876;2023-04-23T08:25:28;56270.78;;;-140.56;57.83
10482;BME280;5288;42.334;23.876;2023-04-23T08:27:55;56251.03;;;-140.56;58.15
10482;BME280;5288;42.334;23.876;2023-04-23T08:30:22;56288.56;;;-140.56;57.05
10482;BME280;5288;42.334;23.876;2023-04-23T08:32:51;56266.81;;;-140.56;56.40
10482;BME280;5288;42.334;23.876;2023-04-23T08:35:19;56278.69;;;-140.56;56.91
10482;BME280;5288;42.334;23.876;2023-04-23T08:37:46;56286.59;;;-140.56;57.70
10482;BME280;5288;42.334;23.876;2023-04-23T08:40:13;56274.72;;;-140.56;57.63
10482;BME280;5288;42.334;23.876;2023-04-23T08:42:42;56260.91;;;-140.56;56.99
10482;BME280;5288;42.334;23.876;2023-04-23T08:45:11;56274.72;;;-140.56;56.68
10482;BME280;5288;42.334;23.876;2023-04-23T08:47:38;56231.25;;;-140.56;56.96
10482;BME280;5288;42.334;23.876;2023-04-23T08:50:10;56266.81;;;-140.56;57.35
10482;BME280;5288;42.334;23.876;2023-04-23T08:52:39;56239.16;;;-140.56;56.69
10482;BME280;5288;42.334;23.876;2023-04-23T08:55:08;56251.03;;;-140.56;56.92
10482;BME280;5288;42.334;23.876;2023-04-23T08:57:37;56264.84;;;-140.56;58.35
10482;BME280;5288;42.334;23.876;2023-04-23T09:00:06;56245.09;;;-140.56;58.39
10482;BME280;5288;42.334;23.876;2023-04-23T09:02:35;56247.06;;;-140.56;56.94
10482;BME280;5288;42.334;23.876;2023-04-23T09:05:02;56221.38;;;-140.56;56.29
10482;BME280;5288;42.334;23.876;2023-04-23T09:07:32;56249.03;;;-140.56;54.90
10482;BME280;5288;42.334;23.876;2023-04-23T09:09:59;56260.91;;;-140.56;55.09
10482;BME280;5288;42.334;23.876;2023-04-23T09:12:26;56233.22;;;-140.56;54.44
10482;BME280;5288;42.334;23.876;2023-04-23T09:14:53;56233.22;;;-140.56;53.56
10482;BME280;5288;42.334;23.876;2023-04-23T09:17:21;56254.97;;;-140.56;52.98
10482;BME280;5288;42.334;23.876;2023-04-23T09:19:49;56258.94;;;-140.56;52.98
10482;BME280;5288;42.334;23.876;2023-04-23T09:22:38;56223.34;;;-140.56;51.66
10482;BME280;5288;42.334;23.876;2023-04-23T09:25:06;56225.31;;;-140.56;52.42
10482;BME280;5288;42.334;23.876;2023-04-23T09:27:33;56235.22;;;-140.56;51.55
10482;BME280;5288;42.334;23.876;2023-04-23T09:30:01;56219.41;;;-140.56;50.93
10482;BME280;5288;42.334;23.876;2023-04-23T09:32:32;56217.41;;;-140.56;50.77
10482;BME280;5288;42.334;23.876;2023-04-23T09:35:01;56215.44;;;-140.56;51.27
10482;BME280;5288;42.334;23.876;2023-04-23T09:37:29;56237.19;;;-140.56;50.64
10482;BME280;5288;42.334;23.876;2023-04-23T09:40:00;56235.22;;;-140.56;50.30
10482;BME280;5288;42.334;23.876;2023-04-23T09:42:29;56233.22;;;-140.56;50.67
10482;BME280;5288;42.334;23.876;2023-04-23T09:44:56;56203.59;;;-140.56;50.36
10482;BME280;5288;42.334;23.876;2023-04-23T09:47:24;56207.53;;;-140.56;50.44
10482;BME280;5288;42.334;23.876;2023-04-23T09:49:51;56272.75;;;-140.56;50.65
10482;BME280;5288;42.334;23.876;2023-04-23T09:52:18;56233.22;;;-140.56;49.41
10482;BME280;5288;42.334;23.876;2023-04-23T09:54:47;56231.25;;;-140.56;49.43
10482;BME280;5288;42.334;23.876;2023-04-23T09:57:15;56239.16;;;-140.56;49.37
10482;BME280;5288;42.334;23.876;2023-04-23T09:59:42;56231.25;;;-140.56;47.81
10482;BME280;5288;42.334;23.876;2023-04-23T10:02:10;56225.31;;;-140.56;47.85
10482;BME280;5288;42.334;23.876;2023-04-23T10:04:37;56213.47;;;-140.56;48.19
10482;BME280;5288;42.334;23.876;2023-04-23T10:07:05;56189.75;;;-140.56;47.92
10482;BME280;5288;42.334;23.876;2023-04-23T10:09:33;56162.09;;;-140.56;44.47
10482;BME280;5288;42.334;23.876;2023-04-23T10:12:02;56170.00;;;-140.56;44.46
10482;BME280;5288;42.334;23.876;2023-04-23T10:14:30;56154.19;;;-140.56;45.43
10482;BME280;5288;42.334;23.876;2023-04-23T10:16:58;56213.47;;;-140.56;44.46
10482;BME280;5288;42.334;23.876;2023-04-23T10:19:26;56152.22;;;-140.56;45.23
10482;BME280;5288;42.334;23.876;2023-04-23T10:21:55;56173.94;;;-140.56;45.29
10482;BME280;5288;42.334;23.876;2023-04-23T10:24:25;56179.88;;;-140.56;44.59
10482;BME280;5288;42.334;23.876;2023-04-23T10:26:56;56195.69;;;-140.56;44.14
10482;BME280;5288;42.334;23.876;2023-04-23T10:29:27;56193.72;;;-140.56;45.05
10482;BME280;5288;42.334;23.876;2023-04-23T10:31:59;56189.75;;;-140.56;48.14
10482;BME280;5288;42.334;23.876;2023-04-23T10:34:27;56205.56;;;-140.56;47.49
10482;BME280;5288;42.334;23.876;2023-04-23T10:36:57;56205.56;;;-140.56;49.08
10482;BME280;5288;42.334;23.876;2023-04-23T10:39:26;56189.75;;;-140.56;46.15
10482;BME280;5288;42.334;23.876;2023-04-23T10:41:54;56217.41;;;-140.56;47.31
10482;BME280;5288;42.334;23.876;2023-04-23T10:44:21;56189.75;;;-140.56;45.04
10482;BME280;5288;42.334;23.876;2023-04-23T10:46:53;56148.25;;;-140.56;44.52
10482;BME280;5288;42.334;23.876;2023-04-23T10:49:23;56152.22;;;-140.56;43.02
10482;BME280;5288;42.334;23.876;2023-04-23T10:51:58;56158.13;;;-140.56;43.98
10482;BME280;5288;42.334;23.876;2023-04-23T10:54:28;56156.16;;;-140.56;42.51
10482;BME280;5288;42.334;23.876;2023-04-23T10:57:01;56116.63;;;-140.56;42.02
10482;BME280;5288;42.334;23.876;2023-04-23T10:59:30;56156.16;;;-140.56;40.61
10482;BME280;5288;42.334;23.876;2023-04-23T11:01:57;56136.41;;;-140.56;43.08
10482;BME280;5288;42.334;23.876;2023-04-23T11:04:28;56106.75;;;-140.56;40.56
10482;BME280;5288;42.334;23.876;2023-04-23T11:06:57;56073.16;;;-140.56;40.02
10482;BME280;5288;42.334;23.876;2023-04-23T11:09:28;56116.63;;;-140.56;41.57
10482;BME280;5288;42.334;23.876;2023-04-23T11:11:55;56112.69;;;-140.56;41.00
10482;BME280;5288;42.334;23.876;2023-04-23T11:14:33;56085.00;;;-140.56;40.53
10482;BME280;5288;42.334;23.876;2023-04-23T11:17:00;56087.00;;;-140.56;41.25
10482;BME280;5288;42.334;23.876;2023-04-23T11:19:29;56126.50;;;-140.56;39.96
10482;BME280;5288;42.334;23.876;2023-04-23T11:22:01;56148.25;;;-140.56;40.34
10482;BME280;5288;42.334;23.876;2023-04-23T11:24:30;56150.22;;;-140.56;42.17
10482;BME280;5288;42.334;23.876;2023-04-23T11:26:57;56152.22;;;-140.56;41.95
10482;BME280;5288;42.334;23.876;2023-04-23T11:29:26;56112.69;;;-140.56;41.33
10482;BME280;5288;42.334;23.876;2023-04-23T11:31:54;56098.84;;;-140.56;41.12
10482;BME280;5288;42.334;23.876;2023-04-23T11:34:21;56088.97;;;-140.56;40.40
10482;BME280;5288;42.334;23.876;2023-04-23T11:36:53;56116.63;;;-140.56;40.27
10482;BME280;5288;42.334;23.876;2023-04-23T11:39:20;56142.31;;;-140.56;41.76
10482;BME280;5288;42.334;23.876;2023-04-23T11:41:48;56158.13;;;-140.56;42.51
10482;BME280;5288;42.334;23.876;2023-04-23T11:44:17;56187.78;;;-140.56;42.45
10482;BME280;5288;42.334;23.876;2023-04-23T11:46:45;56146.28;;;-140.56;42.71
10482;BME280;5288;42.334;23.876;2023-04-23T11:49:13;56160.13;;;-140.56;41.94
10482;BME280;5288;42.334;23.876;2023-04-23T11:51:41;56164.06;;;-140.56;42.27
10482;BME280;5288;42.334;23.876;2023-04-23T11:54:10;56130.47;;;-140.56;41.91
10482;BME280;5288;42.334;23.876;2023-04-23T11:56:38;56197.66;;;-140.56;42.78
10482;BME280;5288;42.334;23.876;2023-04-23T11:59:06;56154.19;;;-140.56;43.59
10482;BME280;5288;42.334;23.876;2023-04-23T12:01:43;56126.50;;;-140.56;42.75
10482;BME280;5288;42.334;23.876;2023-04-23T12:04:12;56146.28;;;-140.56;42.59
10482;BME280;5288;42.334;23.876;2023-04-23T12:06:40;56092.91;;;-140.56;40.45
10482;BME280;5288;42.334;23.876;2023-04-23T12:09:09;56100.81;;;-140.56;40.53
10482;BME280;5288;42.334;23.876;2023-04-23T12:11:37;56112.69;;;-140.56;40.14
10482;BME280;5288;42.334;23.876;2023-04-23T12:14:05;56116.63;;;-140.56;38.68
10482;BME280;5288;42.334;23.876;2023-04-23T12:16:37;56130.47;;;-140.56;39.99
10482;BME280;5288;42.334;23.876;2023-04-23T12:19:09;56108.72;;;-140.56;40.77
10482;BME280;5288;42.334;23.876;2023-04-23T12:21:49;56154.19;;;-140.56;40.32
10482;BME280;5288;42.334;23.876;2023-04-23T12:24:21;56136.41;;;-140.56;41.51
10482;BME280;5288;42.334;23.876;2023-04-23T12:26:50;56124.53;;;-140.56;41.71
10482;BME280;5288;42.334;23.876;2023-04-23T12:29:19;56116.63;;;-140.56;41.16
10482;BME280;5288;42.334;23.876;2023-04-23T12:31:46;56124.53;;;-140.56;40.72
10482;BME280;5288;42.334;23.876;2023-04-23T12:34:13;56140.34;;;-140.56;40.60
10482;BME280;5288;42.334;23.876;2023-04-23T12:36:44;56154.19;;;-140.56;41.01
10482;BME280;5288;42.334;23.876;2023-04-23T12:39:24;56128.50;;;-140.56;40.70
10482;BME280;5288;42.334;23.876;2023-04-23T12:41:53;56130.47;;;-140.56;41.11
10482;BME280;5288;42.334;23.876;2023-04-23T12:44:21;56128.50;;;-140.56;40.83